sensor_id;sensor_type;location;lat;lon;timestamp;pressure;altitude;pressure_sealevel;temperature;humidity
706;BME280;21234;48.690;9.016;2024-03-06T00:01:15;96123.94;;;4.24;100.00
706;BME280;21234;48.690;9.016;2024-03-06T00:03:42;96121.03;;;4.32;100.00
706;BME280;21234;48.690;9.016;2024-03-06T00:06:09;96122.31;;;4.23;100.00
706;BME280;21234;48.690;9.016;2024-03-06T00:08:35;96120.09;;;4.13;100.00
706;BME280;21234;48.690;9.016;2024-03-06T00:11:04;96124.84;;;4.18;100.00
706;BME280;21234;48.690;9.016;2024-03-06T00:13:31;96124.34;;;4.27;100.00
706;BME280;21234;48.690;9.016;2024-03-06T00:15:57;96124.44;;;4.14;100.00
706;BME280;21234;48.690;9.016;2024-03-06T00:18:24;96130.38;;;4.23;100.00
706;BME280;21234;48.690;9.016;2024-03-06T00:20:51;96126.94;;;4.09;100.00
706;BME280;21234;48.690;9.016;2024-03-06T00:23:17;96127.94;;;4.15;100.00
706;BME280;21234;48.690;9.016;2024-03-06T00:25:44;96121.50;;;4.22;100.00
706;BME280;21234;48.690;9.016;2024-03-06T00:28:12;96127.31;;;4.19;100.00
706;BME280;21234;48.690;9.016;2024-03-06T00:30:39;96130.81;;;4.20;100.00
706;BME280;21234;48.690;9.016;2024-03-06T00:33:05;96123.72;;;4.32;100.00
706;BME280;21234;48.690;9.016;2024-03-06T00:35:32;96123.31;;;4.28;100.00
706;BME280;21234;48.690;9.016;2024-03-06T00:37:59;96110.16;;;4.14;100.00
706;BME280;21234;48.690;9.016;2024-03-06T00:40:27;96113.44;;;4.22;100.00
706;BME280;21234;48.690;9.016;2024-03-06T00:42:55;96120.31;;;4.12;100.00
706;BME280;21234;48.690;9.016;2024-03-06T00:45:23;96111.59;;;4.16;100.00
706;BME280;21234;48.690;9.016;2024-03-06T00:47:50;96112.03;;;4.07;100.00
706;BME280;21234;48.690;9.016;2024-03-06T00:50:17;96112.22;;;4.12;100.00
706;BME280;21234;48.690;9.016;2024-03-06T00:52:46;96115.97;;;4.11;100.00
706;BME280;21234;48.690;9.016;2024-03-06T00:55:14;96117.00;;;4.03;100.00
706;BME280;21234;48.690;9.016;2024-03-06T00:57:40;96108.97;;;3.96;100.00
706;BME280;21234;48.690;9.016;2024-03-06T01:00:08;96118.91;;;3.96;100.00
706;BME280;21234;48.690;9.016;2024-03-06T01:02:37;96116.59;;;3.99;100.00
706;BME280;21234;48.690;9.016;2024-03-06T01:05:04;96116.22;;;3.96;100.00
706;BME280;21234;48.690;9.016;2024-03-06T01:07:32;96119.69;;;4.10;100.00
706;BME280;21234;48.690;9.016;2024-03-06T01:10:00;96115.56;;;4.07;100.00
706;BME280;21234;48.690;9.016;2024-03-06T01:12:27;96123.00;;;4.05;100.00
706;BME280;21234;48.690;9.016;2024-03-06T01:14:54;96129.22;;;4.05;100.00
706;BME280;21234;48.690;9.016;2024-03-06T01:17:21;96118.88;;;4.02;100.00
706;BME280;21234;48.690;9.016;2024-03-06T01:19:49;96125.88;;;4.10;100.00
706;BME280;21234;48.690;9.016;2024-03-06T01:22:16;96129.03;;;4.00;100.00
706;BME280;21234;48.690;9.016;2024-03-06T01:24:43;96123.84;;;4.05;100.00
706;BME280;21234;48.690;9.016;2024-03-06T01:27:09;96122.00;;;3.99;100.00
706;BME280;21234;48.690;9.016;2024-03-06T01:29:36;96124.88;;;4.04;100.00
706;BME280;21234;48.690;9.016;2024-03-06T01:32:03;96120.63;;;4.28;100.00
706;BME280;21234;48.690;9.016;2024-03-06T01:34:30;96123.00;;;4.12;100.00
706;BME280;21234;48.690;9.016;2024-03-06T01:36:58;96118.66;;;4.04;100.00
706;BME280;21234;48.690;9.016;2024-03-06T01:39:25;96119.09;;;4.01;100.00
706;BME280;21234;48.690;9.016;2024-03-06T01:41:51;96119.09;;;4.01;100.00
706;BME280;21234;48.690;9.016;2024-03-06T01:44:19;96123.84;;;3.99;100.00
706;BME280;21234;48.690;9.016;2024-03-06T01:46:45;96135.63;;;4.04;100.00
706;BME280;21234;48.690;9.016;2024-03-06T01:49:14;96125.28;;;4.08;100.00
706;BME280;21234;48.690;9.016;2024-03-06T01:51:42;96128.97;;;4.20;100.00
706;BME280;21234;48.690;9.016;2024-03-06T01:54:12;96124.84;;;4.18;100.00
706;BME280;21234;48.690;9.016;2024-03-06T01:56:44;96127.34;;;4.13;100.00
706;BME280;21234;48.690;9.016;2024-03-06T01:59:11;96131.09;;;4.05;100.00
706;BME280;21234;48.690;9.016;2024-03-06T02:01:39;96135.63;;;4.04;100.00
706;BME280;21234;48.690;9.016;2024-03-06T02:04:06;96132.72;;;4.06;100.00
706;BME280;21234;48.690;9.016;2024-03-06T02:06:35;96130.44;;;4.10;100.00
706;BME280;21234;48.690;9.016;2024-03-06T02:09:02;96133.72;;;4.18;100.00
706;BME280;21234;48.690;9.016;2024-03-06T02:11:30;96136.41;;;4.18;100.00
706;BME280;21234;48.690;9.016;2024-03-06T02:13:57;96127.94;;;4.15;100.00
706;BME280;21234;48.690;9.016;2024-03-06T02:16:24;96133.75;;;4.12;100.00
706;BME280;21234;48.690;9.016;2024-03-06T02:18:51;96142.44;;;4.07;100.00
706;BME280;21234;48.690;9.016;2024-03-06T02:21:19;96131.28;;;4.03;100.00
706;BME280;21234;48.690;9.016;2024-03-06T02:23:45;96135.00;;;4.09;100.00
706;BME280;21234;48.690;9.016;2024-03-06T02:26:12;96129.84;;;4.08;100.00
706;BME280;21234;48.690;9.016;2024-03-06T02:28:39;96132.31;;;4.02;100.00
706;BME280;21234;48.690;9.016;2024-03-06T02:31:06;96133.78;;;4.05;100.00
706;BME280;21234;48.690;9.016;2024-03-06T02:33:33;96137.28;;;4.05;100.00
706;BME280;21234;48.690;9.016;2024-03-06T02:36:00;96139.56;;;4.09;100.00
706;BME280;21234;48.690;9.016;2024-03-06T02:38:28;96141.84;;;4.05;100.00
706;BME280;21234;48.690;9.016;2024-03-06T02:40:54;96139.78;;;4.00;100.00
706;BME280;21234;48.690;9.016;2024-03-06T02:43:21;96138.09;;;4.13;100.00
706;BME280;21234;48.690;9.016;2024-03-06T02:45:48;96131.28;;;4.10;100.00
706;BME280;21234;48.690;9.016;2024-03-06T02:48:14;96139.53;;;4.15;100.00
706;BME280;21234;48.690;9.016;2024-03-06T02:50:41;96132.28;;;4.16;100.00
706;BME280;21234;48.690;9.016;2024-03-06T02:53:08;96141.59;;;4.13;100.00
706;BME280;21234;48.690;9.016;2024-03-06T02:55:36;96140.38;;;4.16;100.00
706;BME280;21234;48.690;9.016;2024-03-06T02:58:03;96130.22;;;4.18;100.00
706;BME280;21234;48.690;9.016;2024-03-06T03:00:29;96131.66;;;4.20;100.00
706;BME280;21234;48.690;9.016;2024-03-06T03:02:56;96140.16;;;4.17;100.00
706;BME280;21234;48.690;9.016;2024-03-06T03:05:23;96136.41;;;4.18;100.00
706;BME280;21234;48.690;9.016;2024-03-06T03:07:50;96133.53;;;4.13;100.00
706;BME280;21234;48.690;9.016;2024-03-06T03:10:18;96128.50;;;4.23;100.00
706;BME280;21234;48.690;9.016;2024-03-06T03:12:46;96136.84;;;4.15;100.00
706;BME280;21234;48.690;9.016;2024-03-06T03:15:12;96141.38;;;4.21;100.00
706;BME280;21234;48.690;9.016;2024-03-06T03:17:40;96132.50;;;4.14;100.00
706;BME280;21234;48.690;9.016;2024-03-06T03:20:07;96142.63;;;4.19;100.00
706;BME280;21234;48.690;9.016;2024-03-06T03:22:36;96140.75;;;4.19;100.00
706;BME280;21234;48.690;9.016;2024-03-06T03:25:04;96133.13;;;4.16;100.00
706;BME280;21234;48.690;9.016;2024-03-06T03:27:33;96142.00;;;4.17;100.00
706;BME280;21234;48.690;9.016;2024-03-06T03:30:01;96137.66;;;4.16;100.00
706;BME280;21234;48.690;9.016;2024-03-06T03:32:28;96133.72;;;4.18;100.00
706;BME280;21234;48.690;9.016;2024-03-06T03:34:55;96136.38;;;4.25;100.00
706;BME280;21234;48.690;9.016;2024-03-06T03:37:21;96135.31;;;4.26;100.00
706;BME280;21234;48.690;9.016;2024-03-06T03:39:49;96135.75;;;4.23;100.00
706;BME280;21234;48.690;9.016;2024-03-06T03:42:15;96139.44;;;4.35;100.00
706;BME280;21234;48.690;9.016;2024-03-06T03:44:42;96141.31;;;4.28;100.00
706;BME280;21234;48.690;9.016;2024-03-06T03:47:10;96154.38;;;4.24;100.00
706;BME280;21234;48.690;9.016;2024-03-06T03:49:37;96155.03;;;4.20;100.00
706;BME280;21234;48.690;9.016;2024-03-06T03:52:04;96151.75;;;4.18;100.00
706;BME280;21234;48.690;9.016;2024-03-06T03:54:31;96157.28;;;4.23;100.00
706;BME280;21234;48.690;9.016;2024-03-06T03:56:58;96163.50;;;4.23;100.00
706;BME280;21234;48.690;9.016;2024-03-06T03:59:24;96166.38;;;4.28;100.00
706;BME280;21234;48.690;9.016;2024-03-06T04:01:51;96159.75;;;4.24;100.00
706;BME280;21234;48.690;9.016;2024-03-06T04:04:19;96167.25;;;4.16;100.00
706;BME280;21234;48.690;9.016;2024-03-06T04:06:46;96169.94;;;4.16;100.00
706;BME280;21234;48.690;9.016;2024-03-06T04:09:13;96165.59;;;4.21;100.00
706;BME280;21234;48.690;9.016;2024-03-06T04:11:40;96164.31;;;4.24;100.00
706;BME280;21234;48.690;9.016;2024-03-06T04:14:07;96162.25;;;4.26;100.00
706;BME280;21234;48.690;9.016;2024-03-06T04:16:34;96162.28;;;4.19;100.00
706;BME280;21234;48.690;9.016;2024-03-06T04:19:01;96162.91;;;4.21;100.00
706;BME280;21234;48.690;9.016;2024-03-06T04:21:30;96165.59;;;4.21;100.00
706;BME280;21234;48.690;9.016;2024-03-06T04:23:57;96177.19;;;4.22;100.00
706;BME280;21234;48.690;9.016;2024-03-06T04:26:23;96175.75;;;4.19;100.00
706;BME280;21234;48.690;9.016;2024-03-06T04:28:50;96180.72;;;4.16;100.00
706;BME280;21234;48.690;9.016;2024-03-06T04:31:17;96179.25;;;4.20;100.00
706;BME280;21234;48.690;9.016;2024-03-06T04:33:44;96179.41;;;4.25;100.00
706;BME280;21234;48.690;9.016;2024-03-06T04:36:11;96181.91;;;4.26;100.00
706;BME280;21234;48.690;9.016;2024-03-06T04:38:39;96188.53;;;4.24;100.00
706;BME280;21234;48.690;9.016;2024-03-06T04:41:06;96192.84;;;4.31;100.00
706;BME280;21234;48.690;9.016;2024-03-06T04:43:33;96193.06;;;4.30;100.00
706;BME280;21234;48.690;9.016;2024-03-06T04:46:00;96201.13;;;4.30;100.00
706;BME280;21234;48.690;9.016;2024-03-06T04:48:26;96200.53;;;4.28;100.00
706;BME280;21234;48.690;9.016;2024-03-06T04:50:53;96203.22;;;4.28;100.00
706;BME280;21234;48.690;9.016;2024-03-06T04:53:20;96203.22;;;4.28;100.00
706;BME280;21234;48.690;9.016;2024-03-06T04:55:48;96210.06;;;4.24;100.00
706;BME280;21234;48.690;9.016;2024-03-06T04:58:15;96213.56;;;4.24;100.00
706;BME280;21234;48.690;9.016;2024-03-06T05:00:41;96221.00;;;4.29;100.00
706;BME280;21234;48.690;9.016;2024-03-06T05:03:08;96220.16;;;4.35;100.00
706;BME280;21234;48.690;9.016;2024-03-06T05:05:34;96220.38;;;4.33;100.00
706;BME280;21234;48.690;9.016;2024-03-06T05:08:01;96222.06;;;4.28;100.00
706;BME280;21234;48.690;9.016;2024-03-06T05:10:28;96219.56;;;4.26;100.00
706;BME280;21234;48.690;9.016;2024-03-06T05:12:56;96224.94;;;4.26;100.00
706;BME280;21234;48.690;9.016;2024-03-06T05:15:23;96223.50;;;4.24;100.00
706;BME280;21234;48.690;9.016;2024-03-06T05:17:49;96227.25;;;4.23;100.00
706;BME280;21234;48.690;9.016;2024-03-06T05:20:16;96231.38;;;4.25;100.00
706;BME280;21234;48.690;9.016;2024-03-06T05:22:43;96228.31;;;4.22;100.00
706;BME280;21234;48.690;9.016;2024-03-06T05:25:09;96229.50;;;4.26;100.00
706;BME280;21234;48.690;9.016;2024-03-06T05:27:36;96234.06;;;4.25;100.00
706;BME280;21234;48.690;9.016;2024-03-06T05:30:05;96237.78;;;4.24;100.00
706;BME280;21234;48.690;9.016;2024-03-06T05:32:33;96234.94;;;4.19;100.00
706;BME280;21234;48.690;9.016;2024-03-06T05:35:00;96233.06;;;4.20;100.00
706;BME280;21234;48.690;9.016;2024-03-06T05:37:27;96231.41;;;4.19;100.00
706;BME280;21234;48.690;9.016;2024-03-06T05:39:54;96225.84;;;4.14;100.00
706;BME280;21234;48.690;9.016;2024-03-06T05:42:21;96234.94;;;4.13;100.00
706;BME280;21234;48.690;9.016;2024-03-06T05:44:48;96233.28;;;4.12;100.00
706;BME280;21234;48.690;9.016;2024-03-06T05:47:17;96234.97;;;4.06;100.00
706;BME280;21234;48.690;9.016;2024-03-06T05:49:43;96239.28;;;4.07;100.00
706;BME280;21234;48.690;9.016;2024-03-06T05:52:10;96240.75;;;4.10;100.00
706;BME280;21234;48.690;9.016;2024-03-06T05:54:37;96242.19;;;4.12;100.00
706;BME280;21234;48.690;9.016;2024-03-06T05:57:04;96238.47;;;4.13;100.00
706;BME280;21234;48.690;9.016;2024-03-06T05:59:30;96246.31;;;4.15;100.00
706;BME280;21234;48.690;9.016;2024-03-06T06:01:57;96247.56;;;4.12;100.00
706;BME280;21234;48.690;9.016;2024-03-06T06:04:25;96254.59;;;4.13;100.00
706;BME280;21234;48.690;9.016;2024-03-06T06:06:52;96257.50;;;4.12;100.00
706;BME280;21234;48.690;9.016;2024-03-06T06:09:18;96273.66;;;4.12;100.00
706;BME280;21234;48.690;9.016;2024-03-06T06:11:45;96266.00;;;4.15;100.00
706;BME280;21234;48.690;9.016;2024-03-06T06:14:13;96276.13;;;4.20;100.00
706;BME280;21234;48.690;9.016;2024-03-06T06:16:41;96281.50;;;4.20;100.00
706;BME280;21234;48.690;9.016;2024-03-06T06:19:08;96281.09;;;4.16;100.00
706;BME280;21234;48.690;9.016;2024-03-06T06:21:36;96294.13;;;4.19;100.00
706;BME280;21234;48.690;9.016;2024-03-06T06:24:03;96291.03;;;4.22;100.00
706;BME280;21234;48.690;9.016;2024-03-06T06:26:30;96288.50;;;4.27;100.00
706;BME280;21234;48.690;9.016;2024-03-06T06:28:57;96295.34;;;4.23;100.00
706;BME280;21234;48.690;9.016;2024-03-06T06:31:24;96289.75;;;4.25;100.00
706;BME280;21234;48.690;9.016;2024-03-06T06:33:52;96289.75;;;4.25;100.00
706;BME280;21234;48.690;9.016;2024-03-06T06:36:19;96308.78;;;4.23;100.00
706;BME280;21234;48.690;9.016;2024-03-06T06:38:47;96292.22;;;4.26;100.00
706;BME280;21234;48.690;9.016;2024-03-06T06:41:14;96296.41;;;4.22;100.00
706;BME280;21234;48.690;9.016;2024-03-06T06:43:41;96292.06;;;4.21;100.00
706;BME280;21234;48.690;9.016;2024-03-06T06:46:08;96292.03;;;4.28;100.00
706;BME280;21234;48.690;9.016;2024-03-06T06:48:35;96295.34;;;4.23;100.00
706;BME280;21234;48.690;9.016;2024-03-06T06:51:01;96306.34;;;4.22;100.00
706;BME280;21234;48.690;9.016;2024-03-06T06:53:28;96300.72;;;4.23;100.00
706;BME280;21234;48.690;9.016;2024-03-06T06:55:57;96307.75;;;4.24;100.00
706;BME280;21234;48.690;9.016;2024-03-06T06:58:23;96307.16;;;4.22;100.00
706;BME280;21234;48.690;9.016;2024-03-06T07:00:52;96302.81;;;4.15;100.00
706;BME280;21234;48.690;9.016;2024-03-06T07:03:19;96303.66;;;4.22;100.00
706;BME280;21234;48.690;9.016;2024-03-06T07:05:48;96307.16;;;4.22;100.00
706;BME280;21234;48.690;9.016;2024-03-06T07:08:15;96305.28;;;4.23;100.00
706;BME280;21234;48.690;9.016;2024-03-06T07:10:42;96317.06;;;4.28;100.00
706;BME280;21234;48.690;9.016;2024-03-06T07:13:10;96306.72;;;4.25;100.00
706;BME280;21234;48.690;9.016;2024-03-06T07:15:36;96307.13;;;4.29;100.00
706;BME280;21234;48.690;9.016;2024-03-06T07:18:03;96314.19;;;4.23;100.00
706;BME280;21234;48.690;9.016;2024-03-06T07:20:30;96316.03;;;4.23;100.00
706;BME280;21234;48.690;9.016;2024-03-06T07:22:57;96318.72;;;4.29;100.00
706;BME280;21234;48.690;9.016;2024-03-06T07:25:24;96314.59;;;4.33;100.00
706;BME280;21234;48.690;9.016;2024-03-06T07:27:50;96318.94;;;4.28;100.00
706;BME280;21234;48.690;9.016;2024-03-06T07:30:19;96326.38;;;4.26;100.00
706;BME280;21234;48.690;9.016;2024-03-06T07:32:45;96324.72;;;4.25;100.00
706;BME280;21234;48.690;9.016;2024-03-06T07:35:12;96320.22;;;4.19;100.00
706;BME280;21234;48.690;9.016;2024-03-06T07:37:39;96323.53;;;4.14;100.00
706;BME280;21234;48.690;9.016;2024-03-06T07:40:07;96334.69;;;4.11;100.00
706;BME280;21234;48.690;9.016;2024-03-06T07:42:34;96335.13;;;4.15;100.00
706;BME280;21234;48.690;9.016;2024-03-06T07:45:01;96323.31;;;4.16;100.00
706;BME280;21234;48.690;9.016;2024-03-06T07:47:30;96332.81;;;4.25;100.00
706;BME280;21234;48.690;9.016;2024-03-06T07:49:57;96330.94;;;4.25;100.00
706;BME280;21234;48.690;9.016;2024-03-06T07:52:24;96335.31;;;4.20;100.00
706;BME280;21234;48.690;9.016;2024-03-06T07:54:50;96337.97;;;4.26;100.00
706;BME280;21234;48.690;9.016;2024-03-06T07:57:17;96344.81;;;4.29;100.00
706;BME280;21234;48.690;9.016;2024-03-06T07:59:44;96344.41;;;4.25;100.00
706;BME280;21234;48.690;9.016;2024-03-06T08:02:10;96351.44;;;4.26;100.00
706;BME280;21234;48.690;9.016;2024-03-06T08:04:38;96353.28;;;4.32;100.00
706;BME280;21234;48.690;9.016;2024-03-06T08:07:05;96352.88;;;4.35;100.00
706;BME280;21234;48.690;9.016;2024-03-06T08:09:32;96360.34;;;4.33;100.00
706;BME280;21234;48.690;9.016;2024-03-06T08:11:58;96356.19;;;4.31;100.00
706;BME280;21234;48.690;9.016;2024-03-06T08:14:25;96357.22;;;4.36;100.00
706;BME280;21234;48.690;9.016;2024-03-06T08:16:52;96357.84;;;4.45;100.00
706;BME280;21234;48.690;9.016;2024-03-06T08:19:19;96357.84;;;4.45;100.00
706;BME280;21234;48.690;9.016;2024-03-06T08:21:47;96361.56;;;4.44;100.00
706;BME280;21234;48.690;9.016;2024-03-06T08:24:14;96361.16;;;4.47;100.00
706;BME280;21234;48.690;9.016;2024-03-06T08:26:42;96363.84;;;4.47;100.00
706;BME280;21234;48.690;9.016;2024-03-06T08:29:09;96364.25;;;4.51;100.00
706;BME280;21234;48.690;9.016;2024-03-06T08:31:35;96367.78;;;4.51;100.00
706;BME280;21234;48.690;9.016;2024-03-06T08:34:02;96365.91;;;4.52;100.00
706;BME280;21234;48.690;9.016;2024-03-06T08:36:29;96370.47;;;4.51;100.00
706;BME280;21234;48.690;9.016;2024-03-06T08:38:57;96371.88;;;4.60;100.00
706;BME280;21234;48.690;9.016;2024-03-06T08:41:23;96371.25;;;4.58;100.00
706;BME280;21234;48.690;9.016;2024-03-06T08:43:50;96370.84;;;4.61;100.00
706;BME280;21234;48.690;9.016;2024-03-06T08:46:17;96371.03;;;4.66;100.00
706;BME280;21234;48.690;9.016;2024-03-06T08:48:44;96360.03;;;4.81;100.00
706;BME280;21234;48.690;9.016;2024-03-06T08:51:11;96365.63;;;4.86;100.00
706;BME280;21234;48.690;9.016;2024-03-06T08:53:39;96366.00;;;4.90;100.00
706;BME280;21234;48.690;9.016;2024-03-06T08:56:07;96369.31;;;4.92;100.00
706;BME280;21234;48.690;9.016;2024-03-06T08:58:34;96365.13;;;5.02;100.00
706;BME280;21234;48.690;9.016;2024-03-06T09:01:00;96369.94;;;4.94;100.00
706;BME280;21234;48.690;9.016;2024-03-06T09:03:27;96375.13;;;4.89;100.00
706;BME280;21234;48.690;9.016;2024-03-06T09:05:54;96377.22;;;4.87;100.00
706;BME280;21234;48.690;9.016;2024-03-06T09:08:21;96372.47;;;4.82;100.00
706;BME280;21234;48.690;9.016;2024-03-06T09:10:46;96386.34;;;4.79;100.00
706;BME280;21234;48.690;9.016;2024-03-06T09:13:14;96386.56;;;4.78;100.00
706;BME280;21234;48.690;9.016;2024-03-06T09:15:41;96392.56;;;4.80;100.00
706;BME280;21234;48.690;9.016;2024-03-06T09:18:08;96391.97;;;4.71;100.00
706;BME280;21234;48.690;9.016;2024-03-06T09:20:35;96392.59;;;4.66;100.00
706;BME280;21234;48.690;9.016;2024-03-06T09:23:01;96390.09;;;4.65;100.00
706;BME280;21234;48.690;9.016;2024-03-06T09:25:28;96396.53;;;4.64;100.00
706;BME280;21234;48.690;9.016;2024-03-06T09:27:55;96401.28;;;4.62;100.00
706;BME280;21234;48.690;9.016;2024-03-06T09:30:23;96399.00;;;4.65;100.00
706;BME280;21234;48.690;9.016;2024-03-06T09:32:50;96399.84;;;4.66;100.00
706;BME280;21234;48.690;9.016;2024-03-06T09:35:17;96401.69;;;4.65;100.00
706;BME280;21234;48.690;9.016;2024-03-06T09:37:45;96407.28;;;4.64;100.00
706;BME280;21234;48.690;9.016;2024-03-06T09:40:19;96410.41;;;4.67;100.00
706;BME280;21234;48.690;9.016;2024-03-06T09:42:46;96407.91;;;4.66;100.00
706;BME280;21234;48.690;9.016;2024-03-06T09:45:13;96410.59;;;4.66;100.00
706;BME280;21234;48.690;9.016;2024-03-06T09:47:43;96413.31;;;4.66;100.00
706;BME280;21234;48.690;9.016;2024-03-06T09:50:10;96411.66;;;4.65;100.00
706;BME280;21234;48.690;9.016;2024-03-06T09:52:36;96413.94;;;4.61;100.00
706;BME280;21234;48.690;9.016;2024-03-06T09:55:06;96409.78;;;4.65;100.00
706;BME280;21234;48.690;9.016;2024-03-06T09:57:35;96407.50;;;4.62;100.00
706;BME280;21234;48.690;9.016;2024-03-06T10:00:02;96410.41;;;4.67;100.00
706;BME280;21234;48.690;9.016;2024-03-06T10:02:37;96409.34;;;4.82;100.00
706;BME280;21234;48.690;9.016;2024-03-06T10:05:20;96413.28;;;4.86;100.00
706;BME280;21234;48.690;9.016;2024-03-06T10:07:46;96409.09;;;4.90;100.00
706;BME280;21234;48.690;9.016;2024-03-06T10:10:14;96402.44;;;4.99;100.00
706;BME280;21234;48.690;9.016;2024-03-06T10:12:41;96419.44;;;4.93;100.00
706;BME280;21234;48.690;9.016;2024-03-06T10:15:09;96416.13;;;4.91;100.00
706;BME280;21234;48.690;9.016;2024-03-06T10:17:37;96400.59;;;4.93;100.00
706;BME280;21234;48.690;9.016;2024-03-06T10:20:17;96421.94;;;4.88;100.00
706;BME280;21234;48.690;9.016;2024-03-06T10:22:47;96413.28;;;4.86;100.00
706;BME280;21234;48.690;9.016;2024-03-06T10:25:14;96417.78;;;4.92;100.00
706;BME280;21234;48.690;9.016;2024-03-06T10:27:41;96418.22;;;4.95;100.00
706;BME280;21234;48.690;9.016;2024-03-06T10:30:09;96408.03;;;4.97;100.00
706;BME280;21234;48.690;9.016;2024-03-06T10:32:38;96421.31;;;4.92;100.00
706;BME280;21234;48.690;9.016;2024-03-06T10:35:06;96411.41;;;4.86;100.00
706;BME280;21234;48.690;9.016;2024-03-06T10:37:36;96416.41;;;4.83;100.00
706;BME280;21234;48.690;9.016;2024-03-06T10:40:04;96409.34;;;4.82;100.00
706;BME280;21234;48.690;9.016;2024-03-06T10:42:32;96415.38;;;4.77;100.00
706;BME280;21234;48.690;9.016;2024-03-06T10:45:01;96423.84;;;4.81;100.00
706;BME280;21234;48.690;9.016;2024-03-06T10:47:28;96423.22;;;4.79;100.00
706;BME280;21234;48.690;9.016;2024-03-06T10:49:59;96419.50;;;4.80;100.00
706;BME280;21234;48.690;9.016;2024-03-06T10:52:27;96417.22;;;4.83;100.00
706;BME280;21234;48.690;9.016;2024-03-06T10:54:55;96429.44;;;4.86;100.00
706;BME280;21234;48.690;9.016;2024-03-06T10:57:25;96421.53;;;4.91;100.00
706;BME280;21234;48.690;9.016;2024-03-06T10:59:52;96416.97;;;4.98;100.00
706;BME280;21234;48.690;9.016;2024-03-06T11:02:20;96423.38;;;5.03;100.00
706;BME280;21234;48.690;9.016;2024-03-06T11:04:49;96411.13;;;5.07;100.00
706;BME280;21234;48.690;9.016;2024-03-06T11:07:17;96409.88;;;5.10;100.00
706;BME280;21234;48.690;9.016;2024-03-06T11:09:43;96424.81;;;5.13;100.00
706;BME280;21234;48.690;9.016;2024-03-06T11:12:32;96417.16;;;5.10;100.00
706;BME280;21234;48.690;9.016;2024-03-06T11:14:59;96422.53;;;5.10;100.00
706;BME280;21234;48.690;9.016;2024-03-06T11:17:26;96412.56;;;5.17;100.00
706;BME280;21234;48.690;9.016;2024-03-06T11:20:13;96419.19;;;5.14;100.00
706;BME280;21234;48.690;9.016;2024-03-06T11:23:02;96420.47;;;5.05;100.00
706;BME280;21234;48.690;9.016;2024-03-06T11:25:55;96430.22;;;4.99;100.00
706;BME280;21234;48.690;9.016;2024-03-06T11:28:28;96422.56;;;4.96;100.00
706;BME280;21234;48.690;9.016;2024-03-06T11:30:56;96426.50;;;4.94;100.00
706;BME280;21234;48.690;9.016;2024-03-06T11:33:28;96422.34;;;4.98;100.00
706;BME280;21234;48.690;9.016;2024-03-06T11:36:16;96422.34;;;4.91;100.00
706;BME280;21234;48.690;9.016;2024-03-06T11:38:56;96431.06;;;5.00;100.00
706;BME280;21234;48.690;9.016;2024-03-06T11:41:24;96428.56;;;4.98;100.00
706;BME280;21234;48.690;9.016;2024-03-06T11:43:53;96424.63;;;4.94;100.00
706;BME280;21234;48.690;9.016;2024-03-06T11:46:21;96429.81;;;4.96;100.00
706;BME280;21234;48.690;9.016;2024-03-06T11:48:53;96432.31;;;4.91;100.00
706;BME280;21234;48.690;9.016;2024-03-06T11:51:20;96430.22;;;4.93;100.00
706;BME280;21234;48.690;9.016;2024-03-06T11:53:49;96430.44;;;4.91;100.00
706;BME280;21234;48.690;9.016;2024-03-06T11:56:17;96434.16;;;4.90;100.00
706;BME280;21234;48.690;9.016;2024-03-06T11:58:45;96431.88;;;4.94;100.00
706;BME280;21234;48.690;9.016;2024-03-06T12:01:13;96435.81;;;4.91;100.00
706;BME280;21234;48.690;9.016;2024-03-06T12:03:41;96430.63;;;4.96;100.00
706;BME280;21234;48.690;9.016;2024-03-06T12:06:08;96433.13;;;4.98;100.00
706;BME280;21234;48.690;9.016;2024-03-06T12:08:34;96438.31;;;4.93;100.00
706;BME280;21234;48.690;9.016;2024-03-06T12:11:02;96429.19;;;4.94;100.00
706;BME280;21234;48.690;9.016;2024-03-06T12:13:29;96432.97;;;4.86;100.00
706;BME280;21234;48.690;9.016;2024-03-06T12:15:56;96431.88;;;4.94;100.00
706;BME280;21234;48.690;9.016;2024-03-06T12:18:25;96424.41;;;4.96;100.00
706;BME280;21234;48.690;9.016;2024-03-06T12:20:51;96432.91;;;4.93;100.00
706;BME280;21234;48.690;9.016;2024-03-06T12:23:19;96435.22;;;4.89;100.00
706;BME280;21234;48.690;9.016;2024-03-06T12:25:48;96443.28;;;4.89;100.00
706;BME280;21234;48.690;9.016;2024-03-06T12:28:15;96436.03;;;4.90;100.00
706;BME280;21234;48.690;9.016;2024-03-06T12:30:43;96436.03;;;4.96;100.00
706;BME280;21234;48.690;9.016;2024-03-06T12:33:10;96441.19;;;5.04;100.00
706;BME280;21234;48.690;9.016;2024-03-06T12:35:41;96444.72;;;5.05;100.00
706;BME280;21234;48.690;9.016;2024-03-06T12:38:12;96444.50;;;5.06;100.00
706;BME280;21234;48.690;9.016;2024-03-06T12:40:39;96435.59;;;5.06;100.00
706;BME280;21234;48.690;9.016;2024-03-06T12:43:05;96441.19;;;5.04;100.00
706;BME280;21234;48.690;9.016;2024-03-06T12:45:33;96434.38;;;4.95;100.00
706;BME280;21234;48.690;9.016;2024-03-06T12:48:00;96435.19;;;4.96;100.00
706;BME280;21234;48.690;9.016;2024-03-06T12:50:26;96435.00;;;4.97;100.00
706;BME280;21234;48.690;9.016;2024-03-06T12:52:54;96441.41;;;5.03;100.00
706;BME280;21234;48.690;9.016;2024-03-06T12:55:21;96441.00;;;5.06;100.00
706;BME280;21234;48.690;9.016;2024-03-06T12:57:48;96438.72;;;5.03;100.00
706;BME280;21234;48.690;9.016;2024-03-06T13:00:16;96435.38;;;5.07;100.00
706;BME280;21234;48.690;9.016;2024-03-06T13:02:44;96436.44;;;5.06;100.00
706;BME280;21234;48.690;9.016;2024-03-06T13:05:11;96433.53;;;5.01;100.00
706;BME280;21234;48.690;9.016;2024-03-06T13:07:38;96432.69;;;5.07;100.00
706;BME280;21234;48.690;9.016;2024-03-06T13:10:10;96435.38;;;5.07;100.00
706;BME280;21234;48.690;9.016;2024-03-06T13:12:37;96434.34;;;5.02;100.00
706;BME280;21234;48.690;9.016;2024-03-06T13:15:04;96424.22;;;4.97;100.00
706;BME280;21234;48.690;9.016;2024-03-06T13:17:33;96418.59;;;5.05;100.00
706;BME280;21234;48.690;9.016;2024-03-06T13:19:59;96429.38;;;5.12;100.00
706;BME280;21234;48.690;9.016;2024-03-06T13:22:26;96423.97;;;5.12;100.00
706;BME280;21234;48.690;9.016;2024-03-06T13:24:53;96421.09;;;5.07;100.00